Time;durP1;ratioP1;P1;durP2;ratioP2;P2;SDS_P1;SDS_P2;PMS_P1;PMS_P2;Temp;Humidity;BMP_temperature;BMP_pressure;BME280_temperature;BME280_humidity;BME280_pressure;Samples;Min_cycle;Max_cycle;Signal;HPM_P1;HPM_P2
2021/06/06 00:01:15;;;;;;;7.68;5.78;;;;;;;14.51;78.66;101261.03;4900768;29;20770;-75
2021/06/06 00:03:45;;;;;;;6.95;6.25;;;;;;;14.50;78.51;101265.47;4894526;29;20082;-76
2021/06/06 00:06:19;;;;;;;8.65;5.82;;;;;;;14.44;78.73;101259.41;4889663;29;20079;-76
2021/06/06 00:08:47;;;;;;;5.80;5.20;;;;;;;14.45;78.73;101266.47;4897576;29;20048;-76
2021/06/06 00:11:17;;;;;;;7.38;5.22;;;;;;;14.46;77.89;101260.28;4904765;29;20083;-76
2021/06/06 00:13:45;;;;;;;7.10;5.70;;;;;;;14.40;77.91;101266.63;4889429;29;20055;-76
2021/06/06 00:16:18;;;;;;;7.40;6.47;;;;;;;14.41;78.69;101267.47;4903744;29;20044;-75
2021/06/06 00:18:48;;;;;;;7.78;6.15;;;;;;;14.36;79.04;101270.25;4898678;29;20044;-75
2021/06/06 00:21:16;;;;;;;6.60;5.90;;;;;;;14.33;78.97;101270.34;4918868;29;20048;-75
2021/06/06 00:23:46;;;;;;;7.78;5.43;;;;;;;14.29;78.73;101268.66;4914922;29;20079;-77
2021/06/06 00:26:13;;;;;;;7.25;5.68;;;;;;;14.25;79.34;101262.56;4902770;29;20058;-75
2021/06/06 00:28:40;;;;;;;6.68;6.00;;;;;;;14.26;79.35;101269.63;4891496;29;20071;-75
2021/06/06 00:31:09;;;;;;;8.23;5.82;;;;;;;14.20;79.31;101267.13;4901609;29;20056;-75
2021/06/06 00:33:38;;;;;;;6.60;5.57;;;;;;;14.18;79.63;101268.94;4906407;29;22283;-76
2021/06/06 00:36:07;;;;;;;6.65;5.40;;;;;;;14.13;79.68;101265.56;4910837;29;20454;-77
2021/06/06 00:38:34;;;;;;;7.25;6.10;;;;;;;14.12;79.55;101263.78;4902110;29;20627;-75
2021/06/06 00:41:00;;;;;;;7.00;5.78;;;;;;;14.14;79.67;101261.13;4908504;29;20514;-76
2021/06/06 00:43:29;;;;;;;6.82;5.70;;;;;;;14.07;79.79;101263.03;4920097;29;20071;-76
2021/06/06 00:45:56;;;;;;;6.82;5.88;;;;;;;14.02;80.19;101267.59;4904681;29;20048;-77
2021/06/06 00:48:23;;;;;;;6.80;6.10;;;;;;;13.99;80.62;101257.91;4908066;29;20096;-77
2021/06/06 00:50:55;;;;;;;7.35;5.95;;;;;;;13.94;80.93;101262.47;4878245;29;20044;-76
2021/06/06 00:53:41;;;;;;;7.57;6.50;;;;;;;13.88;81.52;101267.06;4905638;29;20076;-75
2021/06/06 00:56:10;;;;;;;7.75;6.13;;;;;;;13.85;81.65;101268.00;4910449;29;20101;-76
2021/06/06 00:58:38;;;;;;;6.97;5.80;;;;;;;13.77;81.74;101270.84;4886466;29;20044;-76
2021/06/06 01:01:04;;;;;;;7.22;6.30;;;;;;;13.71;82.21;101267.47;4891039;29;20788;-77
2021/06/06 01:03:31;;;;;;;8.25;5.90;;;;;;;13.71;81.97;101270.13;4907547;29;20054;-75
2021/06/06 01:06:06;;;;;;;6.50;5.80;;;;;;;13.73;81.26;101263.88;4924208;29;20060;-75
2021/06/06 01:08:37;;;;;;;6.65;5.75;;;;;;;13.68;81.02;101262.22;4905396;29;20384;-75
2021/06/06 01:11:16;;;;;;;7.85;6.35;;;;;;;13.63;80.57;101262.34;4904118;29;20060;-76
2021/06/06 01:13:46;;;;;;;6.55;5.55;;;;;;;13.71;79.83;101264.81;4909441;29;20043;-75
2021/06/06 01:16:27;;;;;;;6.15;5.43;;;;;;;13.60;79.76;101261.53;4896347;29;20052;-76
2021/06/06 01:18:55;;;;;;;6.82;6.10;;;;;;;13.53;80.82;101260.78;4903509;29;20614;-76
2021/06/06 01:21:43;;;;;;;8.23;5.38;;;;;;;13.62;79.66;101259.69;4905461;29;20104;-75
2021/06/06 01:24:58;;;;;;;6.78;6.00;;;;;;;13.55;79.87;101260.78;4906122;29;20060;-74
2021/06/06 01:27:28;;;;;;;7.30;5.93;;;;;;;13.57;79.57;101257.16;4869270;29;20120;-77
2021/06/06 01:30:01;;;;;;;7.60;6.10;;;;;;;13.59;79.82;101254.47;4921101;29;20036;-75
2021/06/06 01:32:37;;;;;;;6.25;5.65;;;;;;;13.54;80.09;101251.94;4900027;29;20131;-76
2021/06/06 01:35:14;;;;;;;7.20;6.00;;;;;;;13.45;81.08;101249.47;4909618;29;20056;-77
2021/06/06 01:37:45;;;;;;;8.13;6.00;;;;;;;13.48;81.60;101258.25;4918124;29;20048;-76
2021/06/06 01:40:16;;;;;;;6.88;5.88;;;;;;;13.51;81.72;101252.00;4905053;29;20040;-77
2021/06/06 01:42:46;;;;;;;6.97;5.95;;;;;;;13.38;82.23;101251.41;4899466;29;20048;-75
2021/06/06 01:45:22;;;;;;;7.00;6.20;;;;;;;13.39;82.31;101254.94;4910925;29;20055;-77
2021/06/06 01:47:50;;;;;;;6.78;5.93;;;;;;;13.39;82.06;101255.81;4905163;29;20048;-77
2021/06/06 01:50:22;;;;;;;9.00;5.95;;;;;;;13.38;81.89;101248.75;4905476;29;20064;-76
2021/06/06 01:52:51;;;;;;;9.20;6.15;;;;;;;13.36;82.12;101252.34;4906290;29;20040;-76
2021/06/06 01:55:23;;;;;;;8.80;5.90;;;;;;;13.35;82.60;101251.47;4905507;29;20091;-76
2021/06/06 01:57:52;;;;;;;8.10;6.22;;;;;;;13.29;82.81;101248.09;4915107;29;20103;-76
2021/06/06 02:00:26;;;;;;;7.90;5.78;;;;;;;13.28;82.92;101247.19;4916766;29;20526;-76
2021/06/06 02:02:53;;;;;;;9.40;6.53;;;;;;;13.19;82.79;101250.94;4911017;29;20502;-77
2021/06/06 02:05:20;;;;;;;7.70;5.60;;;;;;;13.19;82.70;101250.03;4904786;29;20100;-76
2021/06/06 02:07:48;;;;;;;7.07;5.70;;;;;;;13.23;81.95;101252.63;4907251;29;20233;-75
2021/06/06 02:10:27;;;;;;;6.32;5.72;;;;;;;13.16;82.05;101253.63;4888464;29;20052;-76
2021/06/06 02:13:08;;;;;;;6.63;5.90;;;;;;;13.09;82.27;101243.19;4902411;29;20076;-76
2021/06/06 02:15:37;;;;;;;6.57;5.45;;;;;;;13.05;81.94;101246.81;4914580;29;20391;-75
2021/06/06 02:18:06;;;;;;;9.77;6.50;;;;;;;13.00;81.79;101248.69;4912202;29;20051;-77
2021/06/06 02:20:37;;;;;;;7.30;5.75;;;;;;;12.96;82.72;101251.41;4909854;29;20067;-76
2021/06/06 02:23:05;;;;;;;6.50;5.90;;;;;;;12.92;82.49;101260.31;4909937;29;20786;-77
2021/06/06 02:25:32;;;;;;;6.55;5.88;;;;;;;12.84;82.88;101242.81;4909877;29;20055;-75
2021/06/06 02:28:22;;;;;;;6.88;6.18;;;;;;;12.83;82.97;101241.06;4911404;29;20044;-77
2021/06/06 02:30:54;;;;;;;7.50;5.68;;;;;;;12.86;82.27;101243.66;4910296;29;20051;-77
2021/06/06 02:33:33;;;;;;;6.97;6.25;;;;;;;12.78;82.95;101245.59;4909831;29;20044;-77
2021/06/06 02:36:03;;;;;;;7.53;6.00;;;;;;;12.63;84.44;101247.66;4905938;29;20044;-76
2021/06/06 02:38:51;;;;;;;8.20;6.00;;;;;;;12.60;84.33;101253.00;4906826;29;20462;-76
2021/06/06 02:41:24;;;;;;;7.72;5.88;;;;;;;12.69;83.47;101249.28;4907965;29;20044;-77
2021/06/06 02:43:55;;;;;;;6.70;5.63;;;;;;;12.73;83.23;101245.69;4916310;29;20091;-77
2021/06/06 02:46:23;;;;;;;6.70;6.07;;;;;;;12.61;83.18;101246.81;4911904;29;20048;-76
2021/06/06 02:49:03;;;;;;;6.85;5.35;;;;;;;12.51;84.41;101253.19;4908000;29;20036;-76
2021/06/06 02:51:32;;;;;;;7.15;5.90;;;;;;;12.61;83.20;101246.81;4893526;29;20484;-75
2021/06/06 02:54:05;;;;;;;7.40;6.03;;;;;;;12.58;82.93;101253.94;4920889;29;20452;-75
2021/06/06 02:56:37;;;;;;;8.25;6.57;;;;;;;12.64;82.52;101245.88;4906564;29;20045;-76
2021/06/06 02:59:07;;;;;;;7.03;6.13;;;;;;;12.61;83.16;101252.13;4917385;29;20522;-75
2021/06/06 03:02:04;;;;;;;7.40;6.28;;;;;;;12.59;83.28;101251.25;4904521;29;20458;-74
2021/06/06 03:04:32;;;;;;;8.93;6.20;;;;;;;12.56;84.38;101251.34;4907191;29;20075;-76
2021/06/06 03:07:08;;;;;;;6.28;5.68;;;;;;;12.61;84.07;101251.22;4889427;29;20080;-75
2021/06/06 03:09:35;;;;;;;8.35;6.03;;;;;;;12.64;84.64;101256.50;4911518;29;20029;-76
2021/06/06 03:12:06;;;;;;;6.85;6.15;;;;;;;12.66;85.39;101258.19;4891181;29;20056;-75
2021/06/06 03:14:35;;;;;;;7.57;6.35;;;;;;;12.64;85.73;101256.50;4908841;29;20067;-76
2021/06/06 03:17:06;;;;;;;8.32;6.22;;;;;;;12.59;85.81;101259.22;4922686;29;20599;-76
2021/06/06 03:19:37;;;;;;;6.47;5.78;;;;;;;12.60;86.13;101247.69;4905930;29;20062;-76
2021/06/06 03:22:06;;;;;;;7.10;6.10;;;;;;;12.60;85.95;101253.00;4896337;29;20071;-75
2021/06/06 03:24:40;;;;;;;7.47;6.18;;;;;;;12.57;86.20;101249.56;4907175;29;20042;-75
2021/06/06 03:27:09;;;;;;;6.10;5.50;;;;;;;12.54;86.58;101254.91;4893967;29;20581;-76
2021/06/06 03:29:49;;;;;;;8.57;6.60;;;;;;;12.57;86.72;101250.41;4915037;29;20044;-76
2021/06/06 03:32:19;;;;;;;7.28;6.25;;;;;;;12.53;86.89;101251.41;4924292;29;20079;-76
2021/06/06 03:34:45;;;;;;;6.45;5.78;;;;;;;12.48;86.99;101250.59;4906297;29;20036;-77
2021/06/06 03:37:12;;;;;;;7.95;5.97;;;;;;;12.57;86.50;101260.16;4906197;29;20045;-75
2021/06/06 03:39:39;;;;;;;8.00;6.68;;;;;;;12.55;86.63;101257.53;4905874;29;20036;-76
2021/06/06 03:42:06;;;;;;;7.28;6.07;;;;;;;12.57;86.89;101255.72;4907563;29;20554;-77
2021/06/06 03:44:32;;;;;;;9.57;6.47;;;;;;;12.55;86.87;101260.19;4899983;29;20056;-76
2021/06/06 03:47:00;;;;;;;7.47;6.10;;;;;;;12.54;87.00;101268.19;4892805;29;20058;-75
2021/06/06 03:49:27;;;;;;;7.15;5.75;;;;;;;12.56;87.44;101261.94;4906575;29;20040;-75
2021/06/06 03:51:54;;;;;;;7.88;6.55;;;;;;;12.57;87.15;101260.16;4891054;29;20052;-76
2021/06/06 03:54:21;;;;;;;7.00;6.18;;;;;;;12.66;86.89;101259.97;4900690;29;20052;-75
2021/06/06 03:56:50;;;;;;;7.50;6.47;;;;;;;12.71;86.66;101263.41;4909513;29;20135;-75
2021/06/06 03:59:17;;;;;;;6.57;5.88;;;;;;;12.70;87.15;101264.31;4905952;29;20095;-77
2021/06/06 04:01:45;;;;;;;7.03;6.22;;;;;;;12.74;87.30;101265.13;4900785;29;20045;-76
2021/06/06 04:04:12;;;;;;;7.07;5.47;;;;;;;12.81;87.08;101259.69;4913376;29;20047;-76
2021/06/06 04:06:39;;;;;;;7.10;6.07;;;;;;;12.84;86.70;101270.22;4895832;29;20044;-76
2021/06/06 04:09:07;;;;;;;8.20;6.35;;;;;;;12.84;86.91;101266.69;4895854;29;20052;-74
2021/06/06 04:11:34;;;;;;;7.15;6.40;;;;;;;12.91;86.77;101263.88;4913287;29;20049;-77
2021/06/06 04:14:01;;;;;;;6.65;5.95;;;;;;;12.93;86.92;101254.09;4895790;29;20040;-76
2021/06/06 04:16:28;;;;;;;6.95;5.90;;;;;;;12.93;87.24;101261.19;4910601;29;20036;-76
2021/06/06 04:18:55;;;;;;;6.90;6.00;;;;;;;12.95;87.33;101262.06;4911613;29;20100;-75
2021/06/06 04:21:25;;;;;;;8.25;5.95;;;;;;;13.06;87.07;101261.81;4912767;29;20509;-76
2021/06/06 04:23:52;;;;;;;8.25;6.95;;;;;;;13.01;88.14;101255.72;4911607;29;20048;-74
2021/06/06 04:26:20;;;;;;;6.70;6.00;;;;;;;13.10;87.98;101250.22;4911396;29;20044;-77
2021/06/06 04:28:47;;;;;;;8.20;6.28;;;;;;;13.15;87.95;101261.63;4925489;29;20036;-77
2021/06/06 04:31:15;;;;;;;8.60;7.05;;;;;;;13.26;87.73;101258.75;4928288;29;20048;-75
2021/06/06 04:33:42;;;;;;;6.80;5.97;;;;;;;13.32;87.68;101256.00;4923834;29;20473;-75
2021/06/06 04:36:09;;;;;;;6.88;6.07;;;;;;;13.35;87.45;101255.91;4921828;29;20051;-74
2021/06/06 04:38:36;;;;;;;8.77;7.10;;;;;;;13.37;87.16;101256.75;4914023;29;20055;-76
2021/06/06 04:41:06;;;;;;;7.50;6.15;;;;;;;13.47;86.96;101251.22;4896142;29;20047;-76
2021/06/06 04:43:33;;;;;;;7.43;6.70;;;;;;;13.46;87.99;101254.78;4912769;29;20111;-75
2021/06/06 04:46:00;;;;;;;8.00;6.45;;;;;;;13.55;88.13;101251.03;4912749;29;20498;-75
2021/06/06 04:48:30;;;;;;;8.93;6.65;;;;;;;13.63;87.84;101257.03;4895783;29;20048;-75
2021/06/06 04:50:59;;;;;;;8.57;6.50;;;;;;;13.70;88.23;101255.09;4914691;29;20104;-75
2021/06/06 04:53:26;;;;;;;8.85;6.38;;;;;;;13.78;87.35;101261.09;4911890;29;20044;-77
2021/06/06 04:55:56;;;;;;;6.80;6.15;;;;;;;13.83;87.14;101253.03;4914383;29;20040;-77
2021/06/06 04:58:24;;;;;;;6.70;6.00;;;;;;;13.91;86.78;101246.59;4911749;29;20054;-77
2021/06/06 05:00:51;;;;;;;7.00;6.30;;;;;;;14.12;86.30;101253.16;4911954;29;20498;-76
2021/06/06 05:03:19;;;;;;;6.72;6.05;;;;;;;14.09;86.75;101258.56;4909876;29;20082;-75
2021/06/06 05:05:46;;;;;;;7.70;6.30;;;;;;;14.22;86.66;101264.44;4907606;29;20500;-76
2021/06/06 05:08:14;;;;;;;7.63;6.20;;;;;;;14.25;86.08;101267.00;4911964;29;20060;-75
2021/06/06 05:10:43;;;;;;;7.10;6.25;;;;;;;14.37;84.96;101262.22;4910442;29;20051;-76
2021/06/06 05:13:10;;;;;;;6.80;6.00;;;;;;;14.61;84.97;101263.41;4904037;29;20052;-76
2021/06/06 05:15:37;;;;;;;7.25;6.45;;;;;;;14.75;85.04;101264.81;4901849;29;20123;-77
2021/06/06 05:18:04;;;;;;;7.45;6.25;;;;;;;15.04;81.25;101264.84;4913661;29;20072;-74
2021/06/06 05:20:39;;;;;;;7.30;6.05;;;;;;;15.30;81.02;101266.75;4907750;29;20072;-77
2021/06/06 05:23:06;;;;;;;7.97;6.40;;;;;;;15.20;82.54;101271.44;4920791;29;20076;-78
2021/06/06 05:25:35;;;;;;;6.00;5.40;;;;;;;15.32;81.98;101259.56;4879172;29;20510;-77
2021/06/06 05:28:03;;;;;;;8.07;6.00;;;;;;;15.52;80.32;101264.28;4928909;29;20049;-76
2021/06/06 05:30:32;;;;;;;6.95;6.32;;;;;;;15.80;76.01;101268.75;4912010;29;20048;-76
2021/06/06 05:32:59;;;;;;;8.73;6.30;;;;;;;15.80;78.48;101271.41;4903085;29;20084;-77
2021/06/06 05:35:28;;;;;;;10.55;6.43;;;;;;;15.85;78.65;101265.03;4906315;29;20089;-77
2021/06/06 05:37:55;;;;;;;11.25;6.40;;;;;;;16.15;77.57;101263.16;4893633;29;20059;-76
2021/06/06 05:40:24;;;;;;;30.25;8.80;;;;;;;16.40;77.24;101270.31;4921665;29;20036;-75
2021/06/06 05:42:51;;;;;;;9.70;6.35;;;;;;;16.98;72.49;101266.41;4911836;29;20048;-75
2021/06/06 05:45:20;;;;;;;23.65;7.43;;;;;;;18.49;66.46;101270.13;4903356;29;20087;-77
2021/06/06 05:47:47;;;;;;;9.82;6.05;;;;;;;20.20;61.36;101260.28;4901883;29;20048;-77
2021/06/06 05:50:17;;;;;;;9.07;6.28;;;;;;;21.89;54.60;101255.56;4918361;29;20522;-77
2021/06/06 05:52:43;;;;;;;5.75;5.00;;;;;;;23.14;52.37;101262.41;4907565;29;20044;-77
2021/06/06 05:55:11;;;;;;;7.55;5.70;;;;;;;24.66;48.04;101257.66;4907444;29;20051;-75
2021/06/06 05:57:37;;;;;;;6.13;5.53;;;;;;;25.83;45.02;101268.22;4899658;29;20048;-76
2021/06/06 06:00:10;;;;;;;6.65;6.03;;;;;;;26.41;41.95;101261.13;4908243;29;20036;-77
2021/06/06 06:02:37;;;;;;;7.07;6.13;;;;;;;26.68;41.97;101260.78;4901055;29;20623;-77
2021/06/06 06:05:04;;;;;;;6.18;5.57;;;;;;;25.50;44.68;101267.00;4907273;29;20096;-76
2021/06/06 06:07:31;;;;;;;8.20;6.45;;;;;;;24.74;46.22;101261.66;4910627;29;20039;-76
2021/06/06 06:09:58;;;;;;;6.75;6.15;;;;;;;24.79;47.62;101260.34;4902041;29;20075;-77
2021/06/06 06:12:25;;;;;;;7.50;6.20;;;;;;;24.50;47.46;101266.94;4910538;29;20526;-76
2021/06/06 06:14:52;;;;;;;7.03;6.10;;;;;;;23.98;47.85;101262.34;4905920;29;20041;-77
2021/06/06 06:17:18;;;;;;;8.85;6.68;;;;;;;23.37;47.71;101264.47;4894466;29;20049;-77
2021/06/06 06:19:45;;;;;;;7.60;6.80;;;;;;;22.99;49.83;101267.81;4905740;29;20083;-76
2021/06/06 06:22:12;;;;;;;7.25;6.55;;;;;;;23.29;51.99;101270.41;4907191;29;20048;-75
2021/06/06 06:24:39;;;;;;;6.88;6.20;;;;;;;23.38;50.58;101273.47;4906392;29;20048;-75
2021/06/06 06:27:06;;;;;;;7.75;7.03;;;;;;;23.66;52.56;101269.88;4904614;29;20051;-75
2021/06/06 06:29:32;;;;;;;8.40;7.68;;;;;;;23.84;48.84;101265.97;4904367;29;20040;-76
2021/06/06 06:31:59;;;;;;;8.93;7.35;;;;;;;23.95;48.60;101266.09;4906654;29;20049;-76
2021/06/06 06:34:26;;;;;;;8.63;6.63;;;;;;;23.72;50.21;101273.03;4902102;29;20439;-76
2021/06/06 06:36:53;;;;;;;6.90;6.20;;;;;;;23.77;48.94;101268.19;4907867;29;20043;-76
2021/06/06 06:39:19;;;;;;;7.85;7.05;;;;;;;23.22;47.85;101277.16;4907278;29;20439;-76
2021/06/06 06:41:46;;;;;;;7.20;6.60;;;;;;;23.90;50.32;101270.97;4904144;29;20044;-76
2021/06/06 06:44:13;;;;;;;7.22;6.63;;;;;;;24.14;47.94;101273.84;4890916;29;20055;-77
2021/06/06 06:46:39;;;;;;;7.55;6.75;;;;;;;24.37;48.09;101272.28;4910083;29;20100;-76
2021/06/06 06:49:06;;;;;;;9.25;6.95;;;;;;;24.68;49.39;101277.31;4911383;29;20056;-77
2021/06/06 06:51:36;;;;;;;10.82;7.70;;;;;;;24.62;45.36;101282.28;4907031;29;20048;-77
2021/06/06 06:54:03;;;;;;;7.00;6.30;;;;;;;24.79;46.57;101276.56;4909953;29;20051;-77
2021/06/06 06:56:30;;;;;;;7.55;6.55;;;;;;;25.12;46.84;101280.56;4905927;29;20051;-76
2021/06/06 06:58:57;;;;;;;7.47;6.88;;;;;;;25.11;45.63;101277.00;4911410;29;20051;-77
2021/06/06 07:01:24;;;;;;;8.32;7.57;;;;;;;24.19;45.54;101276.22;4914310;29;20044;-77
2021/06/06 07:03:51;;;;;;;7.95;7.15;;;;;;;24.56;45.29;101270.09;4907861;29;20056;-77
2021/06/06 07:06:19;;;;;;;7.22;6.53;;;;;;;24.72;47.67;101275.28;4910057;29;20044;-76
2021/06/06 07:08:46;;;;;;;10.95;7.00;;;;;;;24.62;46.60;101275.03;4910303;29;20111;-76
2021/06/06 07:11:16;;;;;;;7.90;7.20;;;;;;;24.77;47.74;101273.09;4913332;29;20044;-77
2021/06/06 07:13:44;;;;;;;8.57;7.68;;;;;;;24.62;46.64;101266.06;4898388;29;20036;-77
2021/06/06 07:16:11;;;;;;;7.80;7.03;;;;;;;24.51;47.03;101274.06;4905288;29;20048;-77
2021/06/06 07:18:39;;;;;;;8.95;7.20;;;;;;;24.92;46.71;101272.03;4919181;29;20048;-77
2021/06/06 07:21:11;;;;;;;8.13;7.43;;;;;;;25.06;45.35;101267.53;4914003;29;20494;-77
2021/06/06 07:23:37;;;;;;;9.00;7.35;;;;;;;25.40;47.18;101274.06;4908473;29;20082;-76
2021/06/06 07:26:10;;;;;;;8.18;7.38;;;;;;;25.41;44.34;101278.50;4910062;29;20092;-77
2021/06/06 07:28:37;;;;;;;8.03;7.33;;;;;;;25.85;44.67;101285.19;4917834;29;21020;-77
2021/06/06 07:31:05;;;;;;;8.32;7.53;;;;;;;26.04;45.05;101267.44;4910712;29;20091;-78
2021/06/06 07:33:41;;;;;;;8.90;8.05;;;;;;;26.22;44.13;101272.44;4914324;29;20047;-77
2021/06/06 07:36:14;;;;;;;8.68;7.80;;;;;;;26.38;46.00;101271.19;4903600;29;20075;-78
2021/06/06 07:38:41;;;;;;;8.15;7.45;;;;;;;26.61;45.66;101265.81;4910585;29;20119;-78
2021/06/06 07:41:08;;;;;;;8.43;7.63;;;;;;;26.79;43.45;101269.81;4910239;29;20043;-78
2021/06/06 07:43:35;;;;;;;8.65;6.68;;;;;;;27.05;43.52;101262.34;4909429;29;20084;-78
2021/06/06 07:46:03;;;;;;;7.65;6.85;;;;;;;27.11;41.97;101269.13;4915686;29;20051;-79
2021/06/06 07:48:30;;;;;;;8.23;7.43;;;;;;;26.77;40.69;101273.63;4912212;29;20048;-79
2021/06/06 07:50:56;;;;;;;8.32;7.55;;;;;;;26.30;42.73;101267.31;4895912;29;20044;-78
2021/06/06 07:53:23;;;;;;;8.38;7.50;;;;;;;26.10;41.94;101266.13;4909942;29;20521;-78
2021/06/06 07:55:52;;;;;;;8.43;7.40;;;;;;;26.61;43.49;101268.53;4912331;29;20048;-78
2021/06/06 07:58:22;;;;;;;8.65;7.45;;;;;;;26.90;43.07;101260.81;4907263;29;20053;-78
2021/06/06 08:00:49;;;;;;;8.77;7.95;;;;;;;26.73;40.26;101264.84;4914382;29;20036;-78
2021/06/06 08:03:16;;;;;;;142.23;24.13;;;;;;;26.64;40.96;101265.56;4927105;29;20048;-78
2021/06/06 08:05:43;;;;;;;14.48;8.13;;;;;;;26.92;43.08;101257.00;4908590;29;20046;-79
2021/06/06 08:08:12;;;;;;;8.45;7.50;;;;;;;26.95;42.26;101255.88;4904406;29;20566;-79
2021/06/06 08:10:42;;;;;;;8.10;7.22;;;;;;;26.76;41.57;101261.91;4933687;29;20040;-78
2021/06/06 08:13:09;;;;;;;7.60;6.85;;;;;;;26.70;42.01;101256.97;4920594;29;20044;-80
2021/06/06 08:15:36;;;;;;;7.07;6.55;;;;;;;27.00;42.39;101250.97;4901775;29;20048;-78
2021/06/06 08:18:07;;;;;;;7.53;6.82;;;;;;;27.26;41.91;101261.59;4919369;29;20119;-78
2021/06/06 08:20:39;;;;;;;7.90;7.10;;;;;;;27.31;41.14;101265.66;4904458;29;20586;-79
2021/06/06 08:23:08;;;;;;;7.47;6.78;;;;;;;27.22;40.15;101266.41;4920613;29;20091;-79
2021/06/06 08:25:35;;;;;;;8.15;6.72;;;;;;;27.11;40.75;101267.28;4920558;29;20040;-79
2021/06/06 08:28:02;;;;;;;9.07;7.30;;;;;;;27.29;41.10;101258.63;4933469;29;20044;-78
2021/06/06 08:30:35;;;;;;;95.75;17.15;;;;;;;27.25;40.21;101266.16;4905131;29;20438;-79
2021/06/06 08:33:03;;;;;;;;;;;;;;;27.18;39.90;101270.34;4916749;29;20044;-79
2021/06/06 08:35:49;;;;;;;8.57;7.70;;;;;;;27.32;41.10;101267.38;4916382;29;19930;-78
2021/06/06 08:38:15;;;;;;;7.70;7.00;;;;;;;27.62;41.73;101260.44;4898931;29;20473;-79
2021/06/06 08:41:04;;;;;;;8.10;7.40;;;;;;;27.75;40.54;101261.19;4914716;29;20050;-80
2021/06/06 08:43:58;;;;;;;7.53;6.82;;;;;;;28.07;40.18;101266.59;4924258;29;20421;-79
2021/06/06 08:46:25;;;;;;;8.40;7.25;;;;;;;28.32;41.82;101265.41;4929856;29;20128;-80
2021/06/06 08:48:52;;;;;;;10.95;7.80;;;;;;;28.37;38.14;101268.63;4913310;29;20694;-79
2021/06/06 08:51:47;;;;;;;9.30;7.13;;;;;;;28.22;39.37;101261.72;4917919;29;20049;-80
2021/06/06 08:54:36;;;;;;;7.45;6.75;;;;;;;28.23;41.09;101274.31;4915721;29;20643;-80
2021/06/06 08:57:18;;;;;;;7.95;7.15;;;;;;;28.15;38.58;101272.25;4920056;29;20446;-81
2021/06/06 08:59:51;;;;;;;7.72;6.93;;;;;;;28.50;38.44;101265.69;4934748;29;20083;-80
2021/06/06 09:02:21;;;;;;;7.40;6.70;;;;;;;28.70;38.51;101273.00;4917108;29;20048;-80
2021/06/06 09:04:49;;;;;;;8.98;7.57;;;;;;;28.44;38.71;101268.97;4925992;29;20040;-79
2021/06/06 09:07:38;;;;;;;8.02;7.22;;;;;;;27.99;40.86;101272.69;4918009;29;20498;-79
2021/06/06 09:10:09;;;;;;;8.00;7.30;;;;;;;27.76;42.03;101271.06;4915547;29;20465;-81
2021/06/06 09:12:36;;;;;;;7.97;7.18;;;;;;;27.68;42.34;101268.97;4907343;29;20574;-80
2021/06/06 09:15:07;;;;;;;9.75;8.75;;;;;;;27.29;40.29;101266.78;4883272;29;20753;-80
2021/06/06 09:17:40;;;;;;;7.97;7.28;;;;;;;27.17;42.58;101272.22;4907326;29;20510;-80
2021/06/06 09:20:41;;;;;;;7.32;6.63;;;;;;;26.96;43.53;101271.16;4982925;23;20041;-82
2021/06/06 09:23:08;;;;;;;10.55;7.75;;;;;;;26.70;42.83;101278.66;4946370;28;20098;-79
2021/06/06 09:25:40;;;;;;;9.40;7.65;;;;;;;26.48;43.15;101281.31;4951664;28;20035;-78
2021/06/06 09:28:20;;;;;;;8.43;7.70;;;;;;;26.33;44.95;101281.50;4941541;29;20677;-80
2021/06/06 09:31:02;;;;;;;10.65;7.57;;;;;;;26.27;46.72;101273.81;4929264;29;20321;-79
2021/06/06 09:33:40;;;;;;;12.82;8.05;;;;;;;26.04;44.43;101269.28;4948596;28;20070;-80
2021/06/06 09:36:18;;;;;;;7.50;6.68;;;;;;;25.84;47.43;101281.63;4930874;29;20074;-78
2021/06/06 09:38:47;;;;;;;7.57;6.88;;;;;;;25.71;45.84;101280.81;4950697;28;20512;-79
2021/06/06 09:41:14;;;;;;;8.30;7.50;;;;;;;25.54;47.78;101282.88;4948948;28;20047;-79
2021/06/06 09:43:43;;;;;;;8.13;7.43;;;;;;;25.19;47.42;101290.84;4948160;28;20039;-79
2021/06/06 09:46:14;;;;;;;8.15;7.30;;;;;;;25.20;47.50;101284.47;4934094;29;20039;-80
2021/06/06 09:48:43;;;;;;;8.32;7.47;;;;;;;25.03;49.57;101286.66;4935266;29;20043;-80
2021/06/06 09:51:15;;;;;;;8.73;7.85;;;;;;;25.47;49.00;101289.72;4935911;29;20587;-80
2021/06/06 09:53:43;;;;;;;16.75;8.35;;;;;;;25.75;48.72;101285.88;4935253;28;20051;-80
2021/06/06 09:56:21;;;;;;;8.23;7.53;;;;;;;25.98;47.18;101278.75;4951057;28;20059;-81
2021/06/06 09:58:54;;;;;;;7.13;6.47;;;;;;;26.29;47.33;101279.97;4932235;29;20126;-80
2021/06/06 10:02:03;;;;;;;7.85;7.05;;;;;;;26.47;44.66;101275.03;4957986;28;20103;-82
2021/06/06 10:04:35;;;;;;;8.25;7.40;;;;;;;26.65;43.58;101270.00;4927396;29;20041;-79
2021/06/06 10:07:27;;;;;;;7.45;6.75;;;;;;;26.74;44.22;101285.59;4930354;28;20045;-80
2021/06/06 10:09:55;;;;;;;8.65;7.75;;;;;;;26.67;42.77;101278.91;4917622;29;20747;-81
2021/06/06 10:12:34;;;;;;;8.65;7.85;;;;;;;26.50;42.68;101276.66;4948018;28;20047;-80
2021/06/06 10:15:29;;;;;;;7.68;7.00;;;;;;;26.61;44.28;101276.66;4945955;28;20485;-81
2021/06/06 10:18:04;;;;;;;8.00;7.30;;;;;;;26.26;42.56;101276.66;4956378;28;20046;-80
2021/06/06 10:20:34;;;;;;;8.90;8.10;;;;;;;26.61;42.11;101282.94;4946129;28;20054;-81
2021/06/06 10:23:04;;;;;;;8.60;7.90;;;;;;;26.70;43.46;101275.94;4941129;29;20051;-81
2021/06/06 10:25:43;;;;;;;8.63;7.75;;;;;;;26.83;42.36;101263.16;4947749;29;20051;-81
2021/06/06 10:28:10;;;;;;;8.50;7.70;;;;;;;26.96;42.32;101267.59;4947814;28;20440;-79
2021/06/06 10:30:44;;;;;;;8.57;7.82;;;;;;;27.14;40.97;101269.72;4962843;28;20043;-79
2021/06/06 10:33:32;;;;;;;9.05;8.07;;;;;;;27.60;42.34;101265.13;4931817;29;20492;-80
2021/06/06 10:35:59;;;;;;;7.75;6.95;;;;;;;27.90;39.57;101261.72;4917757;29;20048;-82
2021/06/06 10:38:32;;;;;;;8.23;7.20;;;;;;;27.74;40.46;101254.88;4935011;29;20552;-82
2021/06/06 10:41:12;;;;;;;305.02;39.35;;;;;;;27.81;39.99;101257.06;4970589;28;20194;-81
2021/06/06 10:43:50;;;;;;;11.07;7.47;;;;;;;27.85;41.17;101258.56;4943147;28;20644;-83
2021/06/06 10:46:19;;;;;;;6.88;6.20;;;;;;;28.37;37.64;101260.47;4927292;28;20304;-81
2021/06/06 10:49:11;;;;;;;8.07;7.28;;;;;;;28.41;35.57;101255.59;4944693;28;20047;-82
2021/06/06 10:51:48;;;;;;;8.35;7.55;;;;;;;28.18;37.31;101249.41;4931261;29;20576;-83
2021/06/06 10:54:39;;;;;;;8.32;7.60;;;;;;;28.04;37.00;101243.28;4919070;29;20058;-83
2021/06/06 10:57:15;;;;;;;8.02;7.22;;;;;;;28.52;36.75;101259.16;4949547;28;20110;-81
2021/06/06 10:59:49;;;;;;;7.32;6.55;;;;;;;28.32;36.38;101257.25;4956236;28;20043;-82
2021/06/06 11:02:38;;;;;;;6.45;5.95;;;;;;;28.42;36.93;101251.91;4950874;28;20043;-83
2021/06/06 11:05:36;;;;;;;7.30;6.70;;;;;;;28.15;37.94;101250.53;4916402;29;20051;-80
2021/06/06 11:08:15;;;;;;;7.35;6.70;;;;;;;27.89;38.69;101258.16;4952704;29;20070;-85
2021/06/06 11:10:50;;;;;;;9.32;7.00;;;;;;;27.72;38.22;101256.00;4948234;28;20046;-82
2021/06/06 11:13:35;;;;;;;6.65;6.05;;;;;;;27.60;37.06;101255.13;4929733;28;20063;-79
2021/06/06 11:16:28;;;;;;;7.25;6.57;;;;;;;27.46;39.55;101250.84;4944786;29;20156;-81
2021/06/06 11:18:58;;;;;;;6.20;5.70;;;;;;;27.15;40.02;101255.16;4926602;29;20040;-82
2021/06/06 11:21:39;;;;;;;7.35;6.55;;;;;;;27.08;40.49;101250.41;4933121;28;20083;-81
2021/06/06 11:24:19;;;;;;;7.90;7.20;;;;;;;26.75;40.96;101257.50;4937277;29;20128;-81
2021/06/06 11:26:57;;;;;;;7.50;6.80;;;;;;;26.63;43.83;101255.72;4945393;29;20044;-81
2021/06/06 11:29:26;;;;;;;6.85;6.13;;;;;;;26.57;39.70;101258.91;4938739;29;20106;-81
2021/06/06 11:32:13;;;;;;;6.93;6.32;;;;;;;26.53;39.89;101269.13;4963312;28;20546;-81
2021/06/06 11:34:43;;;;;;;7.35;6.65;;;;;;;26.52;42.06;101266.56;4933800;29;20063;-82
2021/06/06 11:37:34;;;;;;;6.97;6.38;;;;;;;26.50;42.54;101258.53;4957753;28;20077;-81
2021/06/06 11:40:08;;;;;;;6.63;6.13;;;;;;;26.43;41.99;101256.44;4939400;29;20055;-81
2021/06/06 11:42:37;;;;;;;7.25;6.65;;;;;;;26.54;41.69;101248.31;4948318;29;20036;-81
2021/06/06 11:45:25;;;;;;;7.80;7.10;;;;;;;26.44;42.35;101256.31;4935866;29;20051;-81